Terminal Aerodrome Forecast
Issued by NWS Northern Indiana

Home | Current Version | Previous Version | Text Only | Print | Product List | Glossary Off
Versions: 1 2 3 4 5 6 7 8 9 10 11 12 13

000
FTUS43 KIWX 311700
TAFFWA
TAF
KFWA 311720Z 3118/0118 04015G22KT P6SM BKN012 OVC030
      TEMPO 3118/3120 4SM -SHRA BR OVC012
     FM312300 03012KT P6SM OVC015
     FM010600 03010KT P6SM BKN020 OVC035
     FM011600 04008KT P6SM BKN035=

USA.gov is the U.S. government's official web portal to all federal, state and local government web resources and services.